Time;durP1;ratioP1;P1;durP2;ratioP2;P2;SDS_P1;SDS_P2;PMS_P1;PMS_P2;Temp;Humidity;BMP_temperature;BMP_pressure;BME280_temperature;BME280_humidity;BME280_pressure;Samples;Min_cycle;Max_cycle;Signal;HPM_P1;HPM_P2
2021/05/30 00:01:52;;;;;;;4.10;1.73;;;;;;;8.15;69.75;97322.16;3506191;40;20558;-74
2021/05/30 00:04:20;;;;;;;2.43;1.90;;;;;;;8.08;69.96;97325.06;3507020;40;20901;-74
2021/05/30 00:06:47;;;;;;;3.50;1.80;;;;;;;7.93;70.43;97328.41;3507357;40;20919;-72
2021/05/30 00:09:16;;;;;;;2.80;1.70;;;;;;;7.99;70.24;97327.28;3507736;40;20709;-73
2021/05/30 00:11:43;;;;;;;3.10;1.80;;;;;;;7.92;70.61;97331.94;3506464;40;21204;-74
2021/05/30 00:14:16;;;;;;;3.40;1.80;;;;;;;7.92;70.82;97324.13;3507847;40;20482;-73
2021/05/30 00:16:45;;;;;;;6.00;1.97;;;;;;;7.97;70.55;97321.28;3493801;40;20464;-74
2021/05/30 00:19:13;;;;;;;4.70;1.83;;;;;;;7.97;70.64;97314.28;3505829;40;20900;-74
2021/05/30 00:21:41;;;;;;;9.93;3.30;;;;;;;7.97;70.16;97309.06;3505409;40;20891;-73
2021/05/30 00:24:09;;;;;;;8.60;2.90;;;;;;;8.07;70.33;97318.16;3497349;40;20844;-73
2021/05/30 00:26:37;;;;;;;6.20;2.27;;;;;;;8.06;70.55;97318.25;3506010;40;20494;-73
2021/05/30 00:29:04;;;;;;;4.93;1.97;;;;;;;8.02;70.48;97322.75;3508435;40;20895;-74
2021/05/30 00:31:32;;;;;;;2.80;1.97;;;;;;;7.91;70.88;97319.81;3506555;40;20550;-73
2021/05/30 00:34:01;;;;;;;2.53;2.20;;;;;;;7.98;70.69;97315.13;3507558;40;20898;-73
2021/05/30 00:36:28;;;;;;;2.20;1.70;;;;;;;7.97;70.27;97323.88;3504872;40;20451;-73
2021/05/30 00:38:56;;;;;;;2.37;1.80;;;;;;;7.93;70.21;97315.34;3505506;40;20491;-73
2021/05/30 00:41:23;;;;;;;4.27;2.07;;;;;;;7.83;71.16;97321.94;3505393;40;20790;-73
2021/05/30 00:43:54;;;;;;;4.03;1.57;;;;;;;7.75;71.52;97326.66;3506114;40;20565;-72
2021/05/30 00:46:22;;;;;;;3.63;2.03;;;;;;;7.50;71.96;97332.97;3496270;40;20891;-72
2021/05/30 00:48:51;;;;;;;2.57;1.87;;;;;;;7.20;72.03;97330.81;3508207;40;20558;-73
2021/05/30 00:51:19;;;;;;;4.00;1.93;;;;;;;7.21;72.57;97327.28;3507334;40;20874;-73
2021/05/30 00:53:46;;;;;;;10.90;1.83;;;;;;;7.20;71.90;97302.16;3509203;40;20447;-72
2021/05/30 00:56:15;;;;;;;2.43;1.60;;;;;;;7.41;71.91;97328.16;3508672;40;21231;-74
2021/05/30 00:58:43;;;;;;;2.63;1.87;;;;;;;7.65;71.29;97323.63;3506751;40;20561;-73
2021/05/30 01:01:11;;;;;;;3.37;1.80;;;;;;;7.73;71.17;97335.38;3506775;40;21235;-73
2021/05/30 01:03:39;;;;;;;3.40;1.97;;;;;;;7.78;71.30;97335.19;3506611;40;20892;-73
2021/05/30 01:06:09;;;;;;;4.60;2.20;;;;;;;7.78;71.71;97326.50;3506439;40;20864;-73
2021/05/30 01:08:37;;;;;;;14.03;2.80;;;;;;;7.79;71.53;97325.59;3506409;40;20447;-72
2021/05/30 01:11:05;;;;;;;4.50;2.00;;;;;;;7.70;71.82;97332.94;3506892;40;20562;-73
2021/05/30 01:13:35;;;;;;;4.50;2.00;;;;;;;7.67;71.99;97327.84;3497675;40;20855;-72
2021/05/30 01:16:03;;;;;;;2.87;1.50;;;;;;;7.66;70.98;97333.97;3505712;40;20759;-75
2021/05/30 01:18:31;;;;;;;5.53;2.10;;;;;;;7.63;70.96;97328.91;3507445;40;20845;-72
2021/05/30 01:20:58;;;;;;;2.67;1.80;;;;;;;7.62;71.23;97329.78;3507330;40;20479;-72
2021/05/30 01:23:27;;;;;;;4.43;2.57;;;;;;;7.47;71.88;97328.75;3507442;40;20824;-71
2021/05/30 01:25:54;;;;;;;3.03;1.60;;;;;;;7.20;72.39;97328.19;3505942;40;20486;-72
2021/05/30 01:28:22;;;;;;;8.40;1.73;;;;;;;7.12;71.85;97332.91;3507569;40;20471;-72
2021/05/30 01:30:49;;;;;;;4.23;1.70;;;;;;;6.96;72.37;97327.50;3508443;40;20954;-72
2021/05/30 01:33:18;;;;;;;2.87;1.57;;;;;;;7.07;72.48;97320.06;3508250;40;20755;-72
2021/05/30 01:35:46;;;;;;;3.50;1.50;;;;;;;6.98;72.70;97325.69;3507952;40;20440;-72
2021/05/30 01:38:15;;;;;;;2.83;1.57;;;;;;;6.85;72.92;97324.50;3498578;40;20771;-72
2021/05/30 01:40:44;;;;;;;4.70;1.83;;;;;;;6.60;73.90;97332.50;3506638;40;20806;-72
2021/05/30 01:43:11;;;;;;;1.53;1.20;;;;;;;5.92;76.21;97327.34;3506454;40;20684;-72
2021/05/30 01:45:40;;;;;;;2.47;1.77;;;;;;;6.16;75.23;97306.53;3506342;40;20534;-73
2021/05/30 01:48:08;;;;;;;2.70;1.30;;;;;;;6.60;73.91;97327.28;3507748;40;20903;-72
2021/05/30 01:50:36;;;;;;;4.93;1.30;;;;;;;6.75;73.34;97328.41;3498699;40;20800;-72
2021/05/30 01:53:07;;;;;;;2.50;1.53;;;;;;;6.81;73.51;97323.78;3505173;40;20788;-72
2021/05/30 01:55:50;;;;;;;3.07;1.77;;;;;;;6.94;73.74;97337.16;3507344;40;20937;-73
2021/05/30 01:58:19;;;;;;;3.43;2.10;;;;;;;6.99;73.85;97339.53;3506665;40;20930;-73
2021/05/30 02:00:48;;;;;;;3.50;2.53;;;;;;;7.10;73.26;97337.34;3507138;40;20591;-72
2021/05/30 02:03:18;;;;;;;4.53;2.20;;;;;;;7.19;73.01;97343.88;3507713;40;20534;-72
2021/05/30 02:05:47;;;;;;;4.47;2.43;;;;;;;7.26;72.87;97342.72;3506869;40;20494;-72
2021/05/30 02:08:14;;;;;;;2.77;2.40;;;;;;;7.20;73.29;97338.63;3495704;40;20584;-72
2021/05/30 02:10:42;;;;;;;8.23;2.80;;;;;;;7.36;72.74;97330.13;3507321;40;20899;-72
2021/05/30 02:13:09;;;;;;;3.50;2.23;;;;;;;7.33;71.96;97326.75;3505871;40;20490;-72
2021/05/30 02:15:39;;;;;;;5.30;2.60;;;;;;;7.26;72.47;97332.31;3507196;40;20460;-72
2021/05/30 02:18:07;;;;;;;4.27;2.17;;;;;;;7.27;72.76;97331.38;3506677;40;20474;-72
2021/05/30 02:20:36;;;;;;;3.00;2.03;;;;;;;7.09;72.91;97318.22;3497074;40;20484;-73
2021/05/30 02:23:04;;;;;;;3.47;2.07;;;;;;;7.18;72.01;97332.63;3505879;40;20670;-73
2021/05/30 02:25:31;;;;;;;3.20;2.10;;;;;;;7.19;71.78;97331.69;3508553;40;20578;-73
2021/05/30 02:27:59;;;;;;;3.97;2.20;;;;;;;6.87;72.29;97326.13;3507622;40;20542;-72
2021/05/30 02:30:29;;;;;;;5.20;1.67;;;;;;;6.84;73.22;97328.88;3505414;40;20478;-73
2021/05/30 02:32:58;;;;;;;3.60;2.20;;;;;;;6.65;73.72;97328.78;3505385;40;20629;-73
2021/05/30 02:35:25;;;;;;;2.97;2.00;;;;;;;6.42;74.47;97342.72;3507060;40;20447;-73
2021/05/30 02:37:53;;;;;;;2.37;1.83;;;;;;;6.31;74.64;97337.97;3492076;40;20502;-72
2021/05/30 02:40:21;;;;;;;3.20;2.20;;;;;;;6.18;75.58;97343.72;3506915;40;20467;-73
2021/05/30 02:42:48;;;;;;;3.57;2.27;;;;;;;6.34;75.03;97343.03;3506804;40;20945;-73
2021/05/30 02:45:19;;;;;;;1.97;1.70;;;;;;;6.16;75.98;97342.94;3508287;40;20448;-73
2021/05/30 02:47:47;;;;;;;5.57;2.17;;;;;;;5.99;76.77;97336.63;3507293;40;21116;-73
2021/05/30 02:50:17;;;;;;;3.47;2.50;;;;;;;6.00;76.97;97333.13;3507703;40;20692;-72
2021/05/30 02:52:45;;;;;;;2.57;2.10;;;;;;;6.09;76.51;97337.94;3506082;40;20792;-72
2021/05/30 02:55:13;;;;;;;6.93;2.10;;;;;;;6.20;76.17;97344.50;3506053;40;20538;-72
2021/05/30 02:57:41;;;;;;;5.27;2.40;;;;;;;6.23;76.11;97344.38;3505417;40;20464;-72
2021/05/30 03:00:10;;;;;;;5.10;2.77;;;;;;;6.30;75.75;97349.28;3507548;40;20708;-72
2021/05/30 03:02:38;;;;;;;4.93;2.50;;;;;;;6.25;75.79;97342.56;3507214;40;20462;-72
2021/05/30 03:05:07;;;;;;;8.20;2.90;;;;;;;6.24;75.92;97346.91;3507076;40;20945;-72
2021/05/30 03:07:36;;;;;;;4.30;2.70;;;;;;;6.33;75.63;97345.69;3505399;40;20500;-72
2021/05/30 03:10:04;;;;;;;4.17;2.33;;;;;;;6.34;76.09;97350.00;3506205;40;20444;-72
2021/05/30 03:12:31;;;;;;;4.43;2.70;;;;;;;6.32;76.20;97352.66;3497215;40;20470;-72
2021/05/30 03:14:59;;;;;;;6.20;2.83;;;;;;;6.25;76.74;97352.97;3506264;40;20928;-72
2021/05/30 03:17:26;;;;;;;4.70;2.57;;;;;;;6.28;76.29;97350.25;3505944;40;20514;-72
2021/05/30 03:19:57;;;;;;;3.10;2.50;;;;;;;6.33;76.28;97361.31;3506126;40;20801;-72
2021/05/30 03:22:24;;;;;;;6.30;3.37;;;;;;;6.18;77.25;97351.53;3506283;40;20806;-74
2021/05/30 03:24:54;;;;;;;7.47;3.30;;;;;;;6.09;77.42;97353.56;3507296;40;21105;-73
2021/05/30 03:27:22;;;;;;;5.00;3.10;;;;;;;6.24;76.79;97354.72;3506138;40;20585;-72
2021/05/30 03:29:49;;;;;;;6.23;3.10;;;;;;;6.23;76.41;97346.97;3506510;40;20506;-71
2021/05/30 03:32:17;;;;;;;6.13;2.83;;;;;;;6.35;76.28;97359.53;3504912;40;20490;-72
2021/05/30 03:34:45;;;;;;;4.40;2.60;;;;;;;6.36;76.30;97350.78;3496734;40;20594;-72
2021/05/30 03:37:12;;;;;;;5.00;3.00;;;;;;;6.37;76.30;97362.91;3505370;40;20535;-72
2021/05/30 03:39:42;;;;;;;6.93;3.17;;;;;;;6.26;76.83;97359.88;3505685;40;20497;-72
2021/05/30 03:42:14;;;;;;;9.53;3.90;;;;;;;6.24;76.60;97356.50;3495777;40;20576;-71
2021/05/30 03:44:41;;;;;;;10.43;2.77;;;;;;;6.27;76.05;97351.16;3497053;40;20463;-72
2021/05/30 03:47:12;;;;;;;6.33;3.73;;;;;;;6.23;76.07;97360.81;3506462;40;20794;-72
2021/05/30 03:49:40;;;;;;;4.77;2.70;;;;;;;6.29;76.00;97359.72;3505581;40;20688;-72
2021/05/30 03:52:08;;;;;;;4.27;2.90;;;;;;;6.34;75.79;97352.59;3504075;40;20475;-71
2021/05/30 03:54:36;;;;;;;5.03;2.43;;;;;;;6.31;75.82;97350.13;3505182;40;20588;-72
2021/05/30 03:57:04;;;;;;;7.37;4.00;;;;;;;6.28;76.14;97352.84;3504735;40;20478;-72
2021/05/30 03:59:32;;;;;;;5.97;3.70;;;;;;;6.29;76.37;97349.34;3507287;40;20448;-72
2021/05/30 04:02:00;;;;;;;10.03;3.80;;;;;;;6.33;76.35;97350.91;3507097;40;20463;-72
2021/05/30 04:04:27;;;;;;;8.60;3.17;;;;;;;6.40;76.22;97356.72;3507057;40;20528;-72
2021/05/30 04:06:58;;;;;;;7.63;3.70;;;;;;;6.41;76.25;97364.47;3506823;40;20540;-73
2021/05/30 04:09:25;;;;;;;5.80;3.20;;;;;;;6.34;76.60;97357.81;3507431;40;20444;-72
2021/05/30 04:11:52;;;;;;;6.40;3.70;;;;;;;6.38;76.34;97355.94;3506091;40;20805;-72
2021/05/30 04:14:20;;;;;;;6.50;3.47;;;;;;;6.42;76.56;97366.16;3496643;40;20585;-71
2021/05/30 04:16:48;;;;;;;6.10;3.33;;;;;;;6.43;76.36;97360.06;3505206;40;20477;-71
2021/05/30 04:19:16;;;;;;;4.17;2.90;;;;;;;6.46;76.52;97365.13;3506557;40;20481;-71
2021/05/30 04:21:46;;;;;;;4.00;2.83;;;;;;;6.57;76.29;97364.69;3507908;40;20474;-72
2021/05/30 04:24:14;;;;;;;6.40;3.37;;;;;;;6.63;75.75;97355.81;3507657;40;20490;-72
2021/05/30 04:26:41;;;;;;;5.60;3.00;;;;;;;6.70;75.60;97365.03;3506111;40;20514;-73
2021/05/30 04:29:09;;;;;;;3.53;2.67;;;;;;;6.56;74.57;97344.78;3508148;40;20839;-72
2021/05/30 04:31:36;;;;;;;6.53;2.90;;;;;;;6.65;74.51;97361.78;3506379;40;20459;-72
2021/05/30 04:34:04;;;;;;;4.57;2.60;;;;;;;6.73;74.72;97360.56;3505937;40;20827;-71
2021/05/30 04:36:32;;;;;;;4.70;2.90;;;;;;;6.70;75.36;97357.22;3506584;40;20465;-71
2021/05/30 04:39:00;;;;;;;6.07;2.67;;;;;;;6.95;75.22;97367.47;3507167;40;20482;-70
2021/05/30 04:41:29;;;;;;;6.67;3.13;;;;;;;7.18;74.83;97363.91;3506469;40;20481;-70
2021/05/30 04:43:56;;;;;;;7.60;3.27;;;;;;;7.39;74.47;97363.84;3506808;40;20466;-71
2021/05/30 04:46:26;;;;;;;3.57;2.60;;;;;;;7.62;73.72;97355.03;3504662;40;20459;-70
2021/05/30 04:48:55;;;;;;;5.27;2.73;;;;;;;7.66;73.07;97327.91;3506497;40;20954;-72
2021/05/30 04:51:23;;;;;;;3.80;3.00;;;;;;;7.92;72.83;97356.25;3497496;40;20473;-72
2021/05/30 04:53:54;;;;;;;4.57;3.17;;;;;;;8.03;72.80;97355.75;3507748;40;20438;-72
2021/05/30 04:56:22;;;;;;;3.90;2.80;;;;;;;8.24;72.22;97353.06;3508410;40;20482;-71
2021/05/30 04:58:50;;;;;;;7.00;3.07;;;;;;;8.20;70.34;97348.91;3508222;40;20728;-72
2021/05/30 05:01:18;;;;;;;6.00;3.50;;;;;;;7.97;71.20;97358.63;3507649;40;20723;-72
2021/05/30 05:03:45;;;;;;;4.87;3.13;;;;;;;8.02;71.38;97361.88;3507816;40;20824;-71
2021/05/30 05:06:13;;;;;;;4.37;2.70;;;;;;;8.12;71.22;97355.31;3506059;40;20840;-71
2021/05/30 05:08:41;;;;;;;5.93;2.93;;;;;;;7.99;71.96;97343.75;3497905;40;20792;-72
2021/05/30 05:11:09;;;;;;;4.67;2.63;;;;;;;8.22;71.08;97354.91;3499970;40;20792;-71
2021/05/30 05:13:37;;;;;;;3.63;2.73;;;;;;;7.98;71.72;97356.88;3507795;40;20767;-72
2021/05/30 05:16:05;;;;;;;4.13;2.80;;;;;;;7.68;72.69;97355.63;3498526;40;20478;-71
2021/05/30 05:18:33;;;;;;;5.77;3.20;;;;;;;7.57;74.05;97352.63;3508428;40;20550;-71
2021/05/30 05:21:02;;;;;;;6.20;3.17;;;;;;;7.90;72.67;97352.88;3504757;40;20537;-72
2021/05/30 05:23:31;;;;;;;6.67;3.00;;;;;;;8.33;71.97;97350.00;3506913;40;20519;-73
2021/05/30 05:26:02;;;;;;;5.00;3.07;;;;;;;8.63;71.00;97349.47;3507738;40;20789;-72
2021/05/30 05:28:31;;;;;;;5.37;3.40;;;;;;;8.48;71.53;97335.41;3499151;40;20593;-72
2021/05/30 05:30:58;;;;;;;4.73;3.80;;;;;;;9.10;70.00;97364.53;3507845;40;21010;-76
2021/05/30 05:33:27;;;;;;;5.50;3.00;;;;;;;9.42;68.40;97357.66;3507173;40;20708;-73
2021/05/30 05:35:54;;;;;;;5.80;2.93;;;;;;;9.56;67.63;97356.94;3498918;40;20562;-73
2021/05/30 05:38:23;;;;;;;7.30;2.87;;;;;;;10.04;66.61;97352.63;3509372;40;20557;-72
2021/05/30 05:40:51;;;;;;;6.70;3.37;;;;;;;10.28;65.28;97346.97;3506892;40;20444;-73
2021/05/30 05:43:19;;;;;;;10.60;3.20;;;;;;;10.54;65.02;97342.06;3506636;40;20503;-73
2021/05/30 05:45:47;;;;;;;5.67;3.17;;;;;;;10.78;63.38;97353.75;3506698;40;20556;-72
2021/05/30 05:48:16;;;;;;;5.97;3.20;;;;;;;10.95;63.73;97350.16;3493216;40;20578;-73
2021/05/30 05:50:45;;;;;;;7.40;4.10;;;;;;;11.00;62.50;97357.75;3508781;40;20456;-74
2021/05/30 05:53:13;;;;;;;5.13;3.40;;;;;;;10.93;62.61;97359.03;3509017;40;21008;-73
2021/05/30 05:55:40;;;;;;;4.67;3.13;;;;;;;11.30;61.59;97359.50;3506769;40;20773;-74
2021/05/30 05:58:09;;;;;;;11.13;3.70;;;;;;;11.33;60.56;97341.81;3505945;40;20463;-73
2021/05/30 06:00:37;;;;;;;5.70;3.33;;;;;;;11.63;60.24;97356.63;3507068;40;20440;-73
2021/05/30 06:03:05;;;;;;;5.17;3.00;;;;;;;11.26;61.23;97348.34;3506380;40;20981;-72
2021/05/30 06:05:32;;;;;;;6.00;3.30;;;;;;;11.55;60.68;97351.84;3509255;40;20542;-72
2021/05/30 06:08:00;;;;;;;3.73;2.60;;;;;;;11.84;59.54;97359.72;3507851;40;20462;-73
2021/05/30 06:10:28;;;;;;;4.77;3.43;;;;;;;11.34;61.49;97361.00;3507144;40;20747;-75
2021/05/30 06:12:58;;;;;;;5.53;3.33;;;;;;;11.63;58.51;97354.84;3506598;40;20887;-73
2021/05/30 06:15:28;;;;;;;8.23;2.83;;;;;;;11.71;59.84;97353.53;3508114;40;20447;-73
2021/05/30 06:17:59;;;;;;;7.23;4.20;;;;;;;12.09;58.96;97358.19;3507807;40;20706;-74
2021/05/30 06:20:27;;;;;;;4.00;3.10;;;;;;;12.20;56.96;97363.63;3508124;40;20776;-73
2021/05/30 06:22:56;;;;;;;4.03;2.63;;;;;;;12.07;57.03;97364.41;3507157;40;20464;-71
2021/05/30 06:25:26;;;;;;;4.20;2.83;;;;;;;12.48;56.70;97352.19;3504344;40;20471;-73
2021/05/30 06:28:05;;;;;;;9.57;3.53;;;;;;;12.21;57.03;97366.16;3505876;40;20495;-73
2021/05/30 06:30:36;;;;;;;9.37;4.43;;;;;;;12.72;56.39;97362.06;3506555;40;20456;-72
2021/05/30 06:33:06;;;;;;;5.30;3.40;;;;;;;12.92;56.41;97372.13;3506733;40;20851;-74
2021/05/30 06:35:35;;;;;;;6.77;3.10;;;;;;;12.91;55.05;97366.94;3497482;40;20486;-73
2021/05/30 06:38:03;;;;;;;9.00;2.60;;;;;;;12.88;56.07;97373.25;3504082;40;20557;-74
2021/05/30 06:40:30;;;;;;;5.80;3.17;;;;;;;12.37;56.18;97357.31;3496975;40;20506;-74
2021/05/30 06:42:58;;;;;;;4.47;2.87;;;;;;;12.83;56.34;97362.19;3505054;40;20483;-72
2021/05/30 06:45:26;;;;;;;4.60;2.93;;;;;;;13.10;55.42;97372.69;3507049;40;20542;-71
2021/05/30 06:47:55;;;;;;;4.87;3.13;;;;;;;13.52;54.19;97368.09;3507274;40;20455;-72
2021/05/30 06:50:25;;;;;;;5.63;3.87;;;;;;;13.77;52.92;97340.94;3496623;40;20931;-73
2021/05/30 06:52:53;;;;;;;5.00;3.20;;;;;;;14.18;51.00;97367.94;3505823;40;20459;-71
2021/05/30 06:55:22;;;;;;;5.30;2.70;;;;;;;13.62;51.88;97363.06;3504980;40;21209;-71
2021/05/30 06:57:50;;;;;;;5.93;3.70;;;;;;;13.41;53.57;97366.22;3506702;40;20610;-72
2021/05/30 07:00:18;;;;;;;7.17;3.73;;;;;;;13.83;54.92;97368.63;3498358;40;20782;-72
2021/05/30 07:02:48;;;;;;;7.63;4.70;;;;;;;14.16;51.44;97369.84;3506834;40;20731;-71
2021/05/30 07:05:18;;;;;;;5.53;3.40;;;;;;;14.85;52.37;97367.50;3505527;40;20662;-72
2021/05/30 07:07:46;;;;;;;4.37;2.60;;;;;;;14.66;50.23;97373.28;3506609;40;20477;-72
2021/05/30 07:10:15;;;;;;;7.43;2.90;;;;;;;14.43;50.87;97338.88;3506200;40;20862;-72
2021/05/30 07:12:43;;;;;;;4.90;2.80;;;;;;;14.48;51.42;97367.53;3506430;40;20533;-71
2021/05/30 07:15:12;;;;;;;6.30;2.57;;;;;;;15.11;49.61;97377.91;3507279;40;20548;-72
2021/05/30 07:17:39;;;;;;;6.10;2.50;;;;;;;15.13;49.58;97363.66;3506620;40;20838;-72
2021/05/30 07:20:08;;;;;;;6.00;2.60;;;;;;;15.78;47.59;97362.25;3507362;40;20465;-72
2021/05/30 07:22:35;;;;;;;3.13;2.20;;;;;;;14.12;49.24;97377.13;3492236;40;20466;-72
2021/05/30 07:25:05;;;;;;;6.07;2.97;;;;;;;14.23;48.82;97376.38;3507742;40;20454;-71
2021/05/30 07:27:35;;;;;;;5.33;2.87;;;;;;;14.82;49.02;97373.03;3507391;40;21151;-72
2021/05/30 07:30:04;;;;;;;3.13;2.53;;;;;;;15.22;46.68;97368.22;3504497;40;20942;-72
2021/05/30 07:32:34;;;;;;;4.80;2.90;;;;;;;14.16;49.29;97377.75;3505311;40;20576;-73
2021/05/30 07:35:01;;;;;;;5.70;3.20;;;;;;;15.03;49.09;97371.44;3506262;40;20463;-73
2021/05/30 07:37:29;;;;;;;5.63;3.20;;;;;;;15.47;49.40;97374.28;3504029;40;20727;-72
2021/05/30 07:40:00;;;;;;;3.93;3.00;;;;;;;16.28;47.41;97372.41;3507279;40;20770;-75
2021/05/30 07:42:29;;;;;;;6.57;2.63;;;;;;;15.86;45.73;97374.00;3507362;40;20818;-75
2021/05/30 07:44:56;;;;;;;2.90;1.90;;;;;;;15.27;47.24;97359.97;3508051;40;20455;-74
2021/05/30 07:47:24;;;;;;;4.63;2.43;;;;;;;16.33;44.90;97374.72;3506424;40;20475;-75
2021/05/30 07:49:55;;;;;;;3.87;2.57;;;;;;;16.17;43.61;97375.06;3507160;40;20939;-75
2021/05/30 07:52:22;;;;;;;4.60;2.70;;;;;;;16.23;44.39;97363.16;3496200;40;20483;-75
2021/05/30 07:54:50;;;;;;;3.53;2.47;;;;;;;16.60;43.82;97379.56;3498707;40;20472;-75
2021/05/30 07:57:17;;;;;;;8.63;2.40;;;;;;;16.65;43.61;97382.69;3506986;40;20477;-74
2021/05/30 07:59:46;;;;;;;4.03;1.97;;;;;;;17.24;42.85;97381.41;3507724;40;20538;-72
2021/05/30 08:02:13;;;;;;;12.33;2.47;;;;;;;17.00;43.13;97376.34;3506691;40;20527;-73
2021/05/30 08:04:44;;;;;;;2.30;1.63;;;;;;;17.25;40.73;97376.94;3494614;40;20772;-75
2021/05/30 08:07:11;;;;;;;2.37;2.00;;;;;;;17.56;40.83;97380.50;3507602;40;20471;-73
2021/05/30 08:09:39;;;;;;;4.10;2.13;;;;;;;17.79;39.46;97389.13;3509210;40;20561;-73
2021/05/30 08:12:07;;;;;;;5.40;2.00;;;;;;;16.08;42.12;97379.28;3496331;40;20550;-72
2021/05/30 08:14:36;;;;;;;3.50;2.27;;;;;;;17.25;42.27;97382.22;3499906;40;20758;-73
2021/05/30 08:17:05;;;;;;;3.13;2.17;;;;;;;17.58;39.52;97360.88;3508145;40;20825;-73
2021/05/30 08:19:34;;;;;;;6.23;2.30;;;;;;;17.38;42.13;97380.25;3500854;40;21197;-72
2021/05/30 08:22:02;;;;;;;3.73;2.53;;;;;;;18.32;41.35;97383.66;3508893;40;20881;-73
2021/05/30 08:24:29;;;;;;;3.23;2.30;;;;;;;17.96;37.88;97377.94;3510372;40;20876;-72
2021/05/30 08:26:57;;;;;;;4.60;2.60;;;;;;;18.69;38.90;97377.75;3506282;40;20810;-71
2021/05/30 08:29:25;;;;;;;6.40;2.67;;;;;;;18.95;38.46;97379.88;3498784;40;20923;-73
2021/05/30 08:31:53;;;;;;;3.00;1.57;;;;;;;17.20;39.56;97383.47;3507680;40;20775;-71
2021/05/30 08:34:22;;;;;;;6.90;2.00;;;;;;;16.62;39.76;97385.56;3508225;40;20760;-72
2021/05/30 08:36:54;;;;;;;10.07;2.67;;;;;;;16.58;40.36;97379.69;3507605;40;20534;-72
2021/05/30 08:39:22;;;;;;;6.10;2.27;;;;;;;17.94;38.49;97385.19;3508048;40;20731;-71
2021/05/30 08:41:52;;;;;;;4.43;2.43;;;;;;;18.72;39.56;97384.59;3506708;40;20492;-72
2021/05/30 08:44:19;;;;;;;5.23;2.70;;;;;;;18.53;39.11;97378.28;3503364;40;21043;-72
2021/05/30 08:46:47;;;;;;;6.13;2.20;;;;;;;17.17;40.79;97383.72;3501661;40;20449;-74
2021/05/30 08:49:15;;;;;;;10.67;2.87;;;;;;;16.45;43.53;97376.38;3508155;40;20493;-71
2021/05/30 08:51:44;;;;;;;6.50;2.90;;;;;;;16.84;44.01;97379.41;3507900;40;20485;-71
2021/05/30 08:54:13;;;;;;;5.33;2.70;;;;;;;18.70;39.20;97379.44;3509262;40;20463;-73
2021/05/30 08:56:42;;;;;;;7.40;3.17;;;;;;;17.75;39.84;97383.25;3507136;40;20490;-73
2021/05/30 08:59:27;;;;;;;3.83;2.77;;;;;;;18.08;40.41;97377.88;3508238;40;20762;-72
2021/05/30 09:01:57;;;;;;;4.27;3.33;;;;;;;18.29;41.85;97380.47;3496966;40;20488;-72
2021/05/30 09:04:33;;;;;;;8.80;2.80;;;;;;;19.44;38.34;97367.41;3498608;40;20871;-71
2021/05/30 09:07:05;;;;;;;3.60;2.30;;;;;;;19.78;36.13;97374.94;3507109;40;20473;-74
2021/05/30 09:09:40;;;;;;;4.23;2.50;;;;;;;17.48;39.43;97381.13;3509611;40;20824;-72
2021/05/30 09:12:19;;;;;;;20.60;12.50;;;;;;;19.11;40.92;97372.22;3504804;40;20906;-73
2021/05/30 09:14:46;;;;;;;13.10;6.77;;;;;;;20.91;36.44;97371.19;3507966;40;20570;-72
2021/05/30 09:17:14;;;;;;;4.90;2.17;;;;;;;18.59;36.02;97374.25;3506774;40;20689;-73
2021/05/30 09:19:44;;;;;;;4.87;2.00;;;;;;;20.06;35.41;97372.34;3507364;40;20466;-74
2021/05/30 09:22:30;;;;;;;4.40;1.97;;;;;;;19.27;32.52;97357.56;3506536;40;20779;-75
2021/05/30 09:25:17;;;;;;;3.53;1.73;;;;;;;20.38;33.53;97368.41;3507315;40;20511;-73
2021/05/30 09:27:59;;;;;;;5.03;2.10;;;;;;;20.00;34.15;97352.47;3504251;40;20542;-72
2021/05/30 09:30:33;;;;;;;4.33;1.50;;;;;;;20.51;32.15;97363.56;3504383;40;20447;-71
2021/05/30 09:33:19;;;;;;;6.70;1.60;;;;;;;20.76;31.84;97367.34;3505446;40;20451;-73
2021/05/30 09:35:53;;;;;;;4.70;2.20;;;;;;;20.24;32.38;97362.56;3493769;40;20559;-71
2021/05/30 09:38:28;;;;;;;6.17;1.77;;;;;;;20.68;30.59;97367.25;3506790;40;20799;-71
2021/05/30 09:40:58;;;;;;;2.10;1.57;;;;;;;20.45;31.50;97359.69;3499167;40;20497;-72
2021/05/30 09:43:27;;;;;;;5.80;1.53;;;;;;;20.92;30.94;97362.19;3505666;40;20912;-72
2021/05/30 09:46:08;;;;;;;3.10;1.90;;;;;;;19.85;31.43;97364.56;3506521;40;20755;-71
2021/05/30 09:48:42;;;;;;;4.43;1.40;;;;;;;19.17;32.16;97344.28;3507001;40;20840;-71
2021/05/30 09:51:26;;;;;;;4.37;1.90;;;;;;;21.11;29.81;97361.19;3506659;40;20516;-73
2021/05/30 09:54:01;;;;;;;2.40;1.53;;;;;;;22.01;30.62;97355.69;3506661;40;20852;-73
2021/05/30 09:56:34;;;;;;;2.53;1.90;;;;;;;22.23;29.30;97364.13;3507145;40;20486;-72
2021/05/30 09:59:04;;;;;;;2.37;1.50;;;;;;;22.23;28.06;97361.44;3507418;40;20440;-72
2021/05/30 10:01:55;;;;;;;3.57;1.50;;;;;;;22.56;28.70;97354.44;3507031;40;20789;-72
2021/05/30 10:04:25;;;;;;;2.13;1.50;;;;;;;22.28;28.62;97367.97;3508402;40;20738;-73
2021/05/30 10:06:55;;;;;;;6.00;1.63;;;;;;;19.37;31.19;97374.31;3507291;40;20532;-72
2021/05/30 10:09:24;;;;;;;8.33;1.80;;;;;;;19.82;31.42;97370.19;3507479;40;20865;-71
2021/05/30 10:11:56;;;;;;;3.70;1.73;;;;;;;20.27;31.47;97369.44;3506579;40;20727;-73
2021/05/30 10:14:24;;;;;;;4.00;2.03;;;;;;;21.47;30.22;97363.84;3506747;40;20805;-71
2021/05/30 10:16:52;;;;;;;6.40;2.00;;;;;;;20.31;30.30;97361.00;3505120;40;20848;-72
2021/05/30 10:19:25;;;;;;;4.93;2.13;;;;;;;20.21;31.48;97362.03;3506095;40;20485;-72
2021/05/30 10:22:02;;;;;;;2.90;2.23;;;;;;;21.42;31.14;97366.09;3507205;40;20467;-71
2021/05/30 10:24:31;;;;;;;16.67;11.17;;;;;;;21.18;31.85;97365.91;3506874;40;20843;-71
2021/05/30 10:27:14;;;;;;;6.27;3.17;;;;;;;20.08;31.71;97362.38;3506163;40;20575;-73
2021/05/30 10:30:02;;;;;;;2.83;1.90;;;;;;;21.10;30.90;97370.16;3507327;40;20444;-72
2021/05/30 10:32:31;;;;;;;5.10;2.30;;;;;;;22.42;28.57;97366.53;3499799;40;20557;-73
2021/05/30 10:35:18;;;;;;;2.77;2.10;;;;;;;22.55;28.78;97359.91;3507707;40;20455;-73
2021/05/30 10:37:53;;;;;;;3.77;1.87;;;;;;;22.46;28.87;97356.38;3505927;40;20568;-73
2021/05/30 10:40:34;;;;;;;4.40;1.70;;;;;;;21.64;29.56;97350.63;3507498;40;20538;-73
2021/05/30 10:43:20;;;;;;;4.03;2.10;;;;;;;21.20;29.78;97347.94;3505141;40;20911;-72
2021/05/30 10:46:03;;;;;;;3.60;1.73;;;;;;;21.70;30.45;97347.34;3506561;40;20942;-71
2021/05/30 10:48:33;;;;;;;4.40;2.33;;;;;;;20.79;31.23;97350.25;3498287;40;20804;-70
2021/05/30 10:51:32;;;;;;;3.13;1.87;;;;;;;21.53;30.37;97343.72;3491650;40;20676;-71
2021/05/30 10:54:10;;;;;;;2.07;1.57;;;;;;;21.20;32.10;97350.63;3505790;40;20456;-72
2021/05/30 10:56:40;;;;;;;3.90;1.97;;;;;;;22.27;29.97;97353.00;3505411;40;20827;-70
2021/05/30 10:59:25;;;;;;;4.27;2.87;;;;;;;22.15;29.82;97343.59;3507733;40;20832;-72
2021/05/30 11:01:55;;;;;;;3.50;2.17;;;;;;;23.54;27.87;97339.47;3505825;40;20542;-72
2021/05/30 11:04:31;;;;;;;1.90;1.80;;;;;;;21.62;29.37;97345.47;3506977;40;21034;-72
2021/05/30 11:07:01;;;;;;;3.87;2.17;;;;;;;20.53;30.94;97342.97;3495579;40;20773;-73
2021/05/30 11:10:19;;;;;;;3.53;2.37;;;;;;;21.96;29.20;97335.81;3506238;40;20475;-72
2021/05/30 11:12:52;;;;;;;49.30;32.27;;;;;;;23.36;27.87;97332.47;3505596;40;20777;-72
2021/05/30 11:15:42;;;;;;;80.53;44.67;;;;;;;23.86;27.01;97326.06;3496179;40;20926;-71
2021/05/30 11:18:19;;;;;;;3.40;2.17;;;;;;;22.76;28.91;97335.44;3507054;40;20479;-72
2021/05/30 11:20:53;;;;;;;2.40;1.80;;;;;;;21.79;30.55;97334.91;3507446;40;20986;-72
2021/05/30 11:23:21;;;;;;;2.90;1.90;;;;;;;23.43;29.24;97335.34;3507699;40;20537;-72
2021/05/30 11:25:52;;;;;;;6.10;2.10;;;;;;;24.04;27.62;97333.03;3506685;40;20709;-73
2021/05/30 11:28:21;;;;;;;4.87;2.47;;;;;;;24.01;28.26;97325.34;3504114;40;20898;-71
2021/05/30 11:30:58;;;;;;;9.53;1.97;;;;;;;23.35;29.32;97324.66;3506666;40;20447;-71
2021/05/30 11:33:43;;;;;;;6.00;1.70;;;;;;;23.93;27.10;97328.06;3505264;40;21101;-71
2021/05/30 11:36:29;;;;;;;3.00;2.00;;;;;;;24.79;25.48;97327.16;3496029;40;20895;-72
2021/05/30 11:39:08;;;;;;;3.00;2.20;;;;;;;22.81;27.53;97322.44;3498925;40;20490;-73
2021/05/30 11:41:38;;;;;;;4.73;2.37;;;;;;;23.42;26.40;97331.84;3505295;40;20475;-71
2021/05/30 11:44:08;;;;;;;4.10;2.00;;;;;;;22.09;28.19;97329.06;3507838;40;20838;-72
2021/05/30 11:46:42;;;;;;;4.03;2.17;;;;;;;22.26;29.35;97319.28;3506632;40;21220;-72
2021/05/30 11:49:13;;;;;;;1.97;1.80;;;;;;;23.60;28.54;97320.94;3505170;40;20477;-71
2021/05/30 11:52:03;;;;;;;4.23;1.80;;;;;;;24.21;26.88;97310.56;3504993;40;20478;-71